Time;durP1;ratioP1;P1;durP2;ratioP2;P2;SDS_P1;SDS_P2;PMS_P1;PMS_P2;Temp;Humidity;BMP_temperature;BMP_pressure;BME280_temperature;BME280_humidity;BME280_pressure;Samples;Min_cycle;Max_cycle;Signal;HPM_P1;HPM_P2
2023/06/16 00:02:00;;;;;;;6.93;4.80;;;17.60;99.70;;;;;;5089240;27;20047;-74
2023/06/16 00:04:27;;;;;;;6.10;4.70;;;17.60;99.80;;;;;;5107592;27;20067;-72
2023/06/16 00:06:53;;;;;;;7.10;5.28;;;17.60;99.90;;;;;;5126639;27;20130;-73
2023/06/16 00:09:25;;;;;;;6.30;5.18;;;17.50;99.90;;;;;;5109659;27;20546;-73
2023/06/16 00:11:52;;;;;;;7.57;5.15;;;17.50;99.90;;;;;;5092358;27;20053;-73
2023/06/16 00:14:18;;;;;;;12.70;4.75;;;17.50;99.90;;;;;;5088297;27;20035;-75
2023/06/16 00:16:44;;;;;;;5.78;4.95;;;17.50;99.90;;;;;;5108091;27;20070;-73
2023/06/16 00:19:17;;;;;;;7.05;5.18;;;17.50;99.90;;;;;;5106562;27;20061;-75
2023/06/16 00:21:43;;;;;;;7.35;5.47;;;17.40;99.90;;;;;;5075210;27;20043;-74
2023/06/16 00:24:09;;;;;;;7.03;5.10;;;17.40;99.90;;;;;;5084420;27;20038;-74
2023/06/16 00:26:35;;;;;;;5.50;4.90;;;17.40;99.90;;;;;;5089241;27;20043;-75
2023/06/16 00:29:05;;;;;;;5.82;4.90;;;17.30;99.90;;;;;;5081251;27;20047;-75
2023/06/16 00:31:31;;;;;;;6.80;5.28;;;17.40;99.90;;;;;;5091455;27;20406;-73
2023/06/16 00:34:01;;;;;;;6.53;5.50;;;17.30;99.90;;;;;;5104856;27;20042;-75
2023/06/16 00:36:30;;;;;;;7.32;6.13;;;17.30;99.90;;;;;;5124780;27;20051;-75
2023/06/16 00:38:56;;;;;;;6.60;5.25;;;17.30;99.90;;;;;;5106707;27;20058;-74
2023/06/16 00:41:28;;;;;;;8.10;5.40;;;17.30;99.90;;;;;;5092273;27;20087;-73
2023/06/16 00:43:56;;;;;;;8.63;5.75;;;17.20;99.90;;;;;;5125076;27;20046;-74
2023/06/16 00:46:27;;;;;;;6.68;5.97;;;17.20;99.90;;;;;;5091095;27;20055;-73
2023/06/16 00:48:55;;;;;;;7.25;5.63;;;17.20;99.90;;;;;;5102700;27;20047;-74
2023/06/16 00:51:21;;;;;;;7.30;6.03;;;17.10;99.90;;;;;;5088082;27;20043;-75
2023/06/16 00:53:47;;;;;;;7.95;6.20;;;17.10;99.90;;;;;;5088633;27;20474;-73
2023/06/16 00:56:14;;;;;;;7.50;5.65;;;17.10;99.90;;;;;;5090453;27;20132;-72
2023/06/16 00:58:39;;;;;;;8.98;5.78;;;17.10;99.90;;;;;;5088947;27;20047;-73
2023/06/16 01:01:05;;;;;;;6.18;5.50;;;17.00;99.90;;;;;;5086411;27;20058;-74
2023/06/16 01:03:32;;;;;;;9.30;6.20;;;17.00;99.90;;;;;;5105546;27;20039;-74
2023/06/16 01:06:13;;;;;;;7.05;5.82;;;17.00;99.90;;;;;;5090741;27;20123;-74
2023/06/16 01:08:48;;;;;;;9.07;5.55;;;17.00;99.90;;;;;;5106170;27;20143;-73
2023/06/16 01:11:29;;;;;;;6.35;5.40;;;16.90;99.90;;;;;;5104892;27;20043;-73
2023/06/16 01:13:58;;;;;;;7.70;5.75;;;16.90;99.90;;;;;;5101114;27;20043;-74
2023/06/16 01:16:31;;;;;;;8.02;5.70;;;16.80;99.90;;;;;;5101861;27;20047;-75
2023/06/16 01:18:58;;;;;;;7.13;5.82;;;16.80;99.90;;;;;;5105613;27;20070;-74
2023/06/16 01:21:27;;;;;;;7.43;5.40;;;16.80;99.90;;;;;;5081438;27;20054;-75
2023/06/16 01:24:08;;;;;;;8.38;5.85;;;16.80;99.90;;;;;;5105771;27;20049;-74
2023/06/16 01:26:37;;;;;;;7.72;6.35;;;16.70;99.90;;;;;;5104336;27;20048;-72
2023/06/16 01:29:06;;;;;;;9.27;5.97;;;16.70;99.90;;;;;;5104281;27;20061;-73
2023/06/16 01:31:33;;;;;;;7.13;5.72;;;16.60;99.90;;;;;;5108539;27;20047;-73
2023/06/16 01:34:01;;;;;;;7.05;5.90;;;16.60;99.90;;;;;;5105857;27;20504;-73
2023/06/16 01:36:31;;;;;;;7.15;5.93;;;16.60;99.90;;;;;;5088343;27;20053;-74
2023/06/16 01:39:04;;;;;;;7.63;6.60;;;16.60;99.90;;;;;;5103140;27;20410;-73
2023/06/16 01:41:30;;;;;;;8.52;6.55;;;16.50;99.90;;;;;;5107992;27;20054;-73
2023/06/16 01:43:58;;;;;;;8.10;6.40;;;16.50;99.90;;;;;;5092648;27;20137;-74
2023/06/16 01:46:24;;;;;;;8.65;6.72;;;16.50;99.90;;;;;;5078290;27;20043;-73
2023/06/16 01:48:54;;;;;;;8.75;7.40;;;16.50;99.90;;;;;;5102236;27;20142;-74
2023/06/16 01:51:21;;;;;;;10.13;7.50;;;16.50;99.90;;;;;;5104969;27;20130;-76
2023/06/16 01:53:46;;;;;;;8.65;7.38;;;16.40;99.90;;;;;;5103729;27;20042;-73
2023/06/16 01:56:13;;;;;;;9.07;7.55;;;16.40;99.90;;;;;;5066872;27;20039;-74
2023/06/16 01:58:39;;;;;;;8.60;7.25;;;16.40;99.90;;;;;;5090835;27;22080;-73
2023/06/16 02:01:16;;;;;;;10.20;7.55;;;16.40;99.90;;;;;;5114867;27;20051;-75
2023/06/16 02:03:46;;;;;;;9.43;7.78;;;16.40;99.90;;;;;;5089088;27;20043;-74
2023/06/16 02:06:25;;;;;;;10.32;8.07;;;16.30;99.90;;;;;;5098432;27;20442;-73
2023/06/16 02:08:55;;;;;;;9.50;8.48;;;16.30;99.90;;;;;;5103985;27;20501;-72
2023/06/16 02:11:21;;;;;;;10.82;8.57;;;16.30;99.90;;;;;;5089277;27;20094;-72
2023/06/16 02:13:48;;;;;;;13.65;9.18;;;16.30;99.90;;;;;;5107286;27;20074;-73
2023/06/16 02:16:14;;;;;;;10.63;9.00;;;16.30;99.90;;;;;;5102946;27;20138;-73
2023/06/16 02:18:40;;;;;;;11.90;9.30;;;16.20;99.90;;;;;;5105329;27;20051;-73
2023/06/16 02:21:06;;;;;;;10.45;9.10;;;16.20;99.90;;;;;;5106663;27;20047;-73
2023/06/16 02:23:31;;;;;;;11.52;9.27;;;16.20;99.90;;;;;;5090705;27;20261;-72
2023/06/16 02:25:57;;;;;;;9.77;8.77;;;16.20;99.90;;;;;;5103870;27;20048;-74
2023/06/16 02:28:23;;;;;;;11.07;9.25;;;16.10;99.90;;;;;;5088180;27;20417;-73
2023/06/16 02:30:48;;;;;;;10.88;9.48;;;16.10;99.90;;;;;;5104971;27;20085;-72
2023/06/16 02:33:15;;;;;;;12.15;10.52;;;16.10;99.90;;;;;;5088513;27;20054;-73
2023/06/16 02:35:41;;;;;;;14.20;11.23;;;16.10;99.90;;;;;;5086787;27;20054;-73
2023/06/16 02:38:08;;;;;;;13.43;11.13;;;16.00;99.90;;;;;;5079495;27;20051;-74
2023/06/16 02:40:35;;;;;;;15.57;10.80;;;16.00;99.90;;;;;;5104153;27;20112;-73
2023/06/16 02:43:03;;;;;;;13.88;11.63;;;16.00;99.90;;;;;;5113483;27;20118;-74
2023/06/16 02:45:29;;;;;;;14.13;12.13;;;16.00;99.90;;;;;;5104603;27;20054;-73
2023/06/16 02:47:55;;;;;;;14.52;11.35;;;15.90;99.90;;;;;;5087975;27;21586;-73
2023/06/16 02:50:21;;;;;;;13.85;11.90;;;15.90;99.90;;;;;;5090051;27;20043;-73
2023/06/16 02:52:48;;;;;;;13.95;11.77;;;15.90;99.90;;;;;;5106151;27;20046;-73
2023/06/16 02:55:21;;;;;;;13.65;11.25;;;15.90;99.90;;;;;;5089593;27;20096;-76
2023/06/16 02:57:47;;;;;;;13.18;11.25;;;15.90;99.90;;;;;;5082468;27;20055;-74
2023/06/16 03:00:13;;;;;;;14.85;11.63;;;15.90;99.90;;;;;;5070267;27;20035;-75
2023/06/16 03:02:39;;;;;;;13.05;11.57;;;15.90;99.90;;;;;;5089454;27;20042;-74
2023/06/16 03:05:06;;;;;;;17.05;13.25;;;15.90;99.90;;;;;;5089127;27;20409;-74
2023/06/16 03:07:34;;;;;;;17.60;12.63;;;15.80;99.90;;;;;;5076336;27;20147;-76
2023/06/16 03:10:03;;;;;;;12.82;11.40;;;15.80;99.90;;;;;;5090172;27;21870;-74
2023/06/16 03:12:29;;;;;;;14.15;11.95;;;15.80;99.90;;;;;;5104262;27;20051;-74
2023/06/16 03:14:54;;;;;;;15.32;11.32;;;15.80;99.90;;;;;;5088573;27;20096;-73
2023/06/16 03:17:21;;;;;;;13.57;12.20;;;15.80;99.90;;;;;;5104159;27;20079;-75
2023/06/16 03:19:51;;;;;;;14.35;12.05;;;15.80;99.90;;;;;;5104027;27;20078;-74
2023/06/16 03:22:17;;;;;;;14.02;11.82;;;15.80;99.90;;;;;;5084910;27;20090;-73
2023/06/16 03:24:44;;;;;;;13.93;12.52;;;15.80;99.90;;;;;;5089113;27;20146;-76
2023/06/16 03:27:10;;;;;;;14.30;12.45;;;15.80;99.90;;;;;;5067027;27;20043;-75
2023/06/16 03:29:37;;;;;;;15.20;12.57;;;15.80;99.90;;;;;;5108325;27;20134;-74
2023/06/16 03:32:06;;;;;;;14.63;13.13;;;15.80;99.90;;;;;;5104110;27;20058;-74
2023/06/16 03:34:33;;;;;;;16.75;13.57;;;15.80;99.90;;;;;;5105493;27;20057;-75
2023/06/16 03:37:01;;;;;;;16.83;13.63;;;15.80;99.90;;;;;;5121480;27;20043;-74
2023/06/16 03:39:27;;;;;;;17.35;14.45;;;15.80;99.90;;;;;;5106648;27;20042;-73
2023/06/16 03:41:53;;;;;;;18.02;14.75;;;15.70;99.90;;;;;;5101471;27;20126;-74
2023/06/16 03:44:19;;;;;;;17.75;14.75;;;15.80;99.90;;;;;;5085468;27;20064;-73
2023/06/16 03:46:45;;;;;;;18.77;15.93;;;15.80;99.90;;;;;;5083987;27;20112;-74
2023/06/16 03:49:11;;;;;;;16.48;14.70;;;15.80;99.90;;;;;;5076275;27;20066;-73
2023/06/16 03:51:43;;;;;;;16.77;14.98;;;15.80;99.90;;;;;;5106617;27;20062;-73
2023/06/16 03:54:13;;;;;;;21.77;17.02;;;15.80;99.90;;;;;;5103114;27;20077;-75
2023/06/16 03:56:39;;;;;;;19.48;16.13;;;15.90;99.90;;;;;;5075307;27;20081;-73
2023/06/16 03:59:05;;;;;;;18.58;15.60;;;15.90;99.90;;;;;;5089039;27;20066;-73
2023/06/16 04:01:31;;;;;;;18.92;15.60;;;15.90;99.90;;;;;;5104642;27;20136;-73
2023/06/16 04:03:57;;;;;;;19.42;16.20;;;15.90;99.90;;;;;;5089290;27;20134;-74
2023/06/16 04:06:29;;;;;;;16.40;14.13;;;15.90;99.90;;;;;;5121270;27;20064;-73
2023/06/16 04:09:02;;;;;;;19.88;16.77;;;16.00;99.90;;;;;;5089217;27;20120;-75
2023/06/16 04:11:30;;;;;;;19.98;16.70;;;16.00;99.90;;;;;;5078406;27;20046;-73
2023/06/16 04:13:56;;;;;;;20.20;17.65;;;16.00;99.90;;;;;;5106061;27;20042;-72
2023/06/16 04:16:21;;;;;;;19.98;17.98;;;16.00;99.90;;;;;;5104067;27;20543;-73
2023/06/16 04:18:48;;;;;;;20.10;18.00;;;16.10;99.90;;;;;;5071824;27;20047;-75
2023/06/16 04:21:17;;;;;;;20.85;18.63;;;16.10;99.90;;;;;;5090001;27;20130;-72
2023/06/16 04:23:46;;;;;;;23.45;19.55;;;16.10;99.90;;;;;;5106530;27;20050;-74
2023/06/16 04:26:11;;;;;;;20.30;18.10;;;16.10;99.90;;;;;;5102105;27;20484;-72
2023/06/16 04:28:44;;;;;;;20.88;18.65;;;16.20;99.90;;;;;;5088873;27;20412;-73
2023/06/16 04:31:11;;;;;;;20.00;17.65;;;16.30;99.90;;;;;;5088578;27;20437;-73
2023/06/16 04:33:42;;;;;;;20.35;16.50;;;16.30;99.90;;;;;;5111277;27;20038;-74
2023/06/16 04:36:08;;;;;;;16.75;14.98;;;16.30;99.90;;;;;;5105683;27;20046;-73
2023/06/16 04:38:34;;;;;;;21.25;16.70;;;16.30;99.90;;;;;;5095640;27;20076;-71
2023/06/16 04:41:00;;;;;;;18.15;15.77;;;16.40;99.90;;;;;;5089636;27;20047;-68
2023/06/16 04:43:25;;;;;;;20.55;15.23;;;16.40;99.90;;;;;;5085915;27;20096;-71
2023/06/16 04:45:51;;;;;;;17.90;15.82;;;16.50;99.90;;;;;;5091511;27;20058;-71
2023/06/16 04:48:17;;;;;;;16.92;14.57;;;16.50;99.90;;;;;;5108270;27;20438;-70
2023/06/16 04:50:42;;;;;;;15.38;13.15;;;16.60;99.90;;;;;;5104050;27;20454;-70
2023/06/16 04:53:08;;;;;;;16.83;14.27;;;16.60;99.90;;;;;;5090866;27;20104;-70
2023/06/16 04:55:34;;;;;;;19.42;12.88;;;16.60;99.90;;;;;;5107636;27;20042;-70
2023/06/16 04:58:00;;;;;;;15.80;12.70;;;16.70;99.90;;;;;;5106138;27;20131;-70
2023/06/16 05:00:28;;;;;;;15.57;12.18;;;16.70;99.90;;;;;;5068456;27;20039;-67
2023/06/16 05:02:54;;;;;;;14.27;10.45;;;16.80;99.90;;;;;;5091592;27;20081;-69
2023/06/16 05:05:20;;;;;;;9.80;7.97;;;16.80;99.90;;;;;;5109250;27;20589;-69
2023/06/16 05:07:46;;;;;;;8.75;7.00;;;16.90;99.90;;;;;;5107567;27;20050;-71
2023/06/16 05:10:12;;;;;;;11.75;6.25;;;17.00;99.90;;;;;;5074189;27;20514;-70
2023/06/16 05:12:38;;;;;;;10.43;6.50;;;17.00;99.90;;;;;;5106997;27;20059;-69
2023/06/16 05:15:04;;;;;;;9.10;6.45;;;17.10;99.90;;;;;;5106072;27;20054;-70
2023/06/16 05:17:30;;;;;;;8.52;6.95;;;17.10;99.90;;;;;;5106686;27;20051;-71
2023/06/16 05:19:56;;;;;;;10.73;6.47;;;17.20;99.90;;;;;;5106449;27;20035;-69
2023/06/16 05:22:23;;;;;;;8.68;6.80;;;17.60;99.90;;;;;;5102102;27;20083;-70
2023/06/16 05:24:53;;;;;;;10.18;6.13;;;17.40;99.90;;;;;;5105407;27;20142;-70
2023/06/16 05:27:25;;;;;;;8.20;6.30;;;17.50;99.90;;;;;;5087230;27;20054;-69
2023/06/16 05:29:52;;;;;;;10.02;7.07;;;17.60;99.90;;;;;;5108402;27;20112;-70
2023/06/16 05:32:19;;;;;;;9.45;6.45;;;17.70;99.90;;;;;;5107382;27;20051;-69
2023/06/16 05:34:49;;;;;;;8.05;6.32;;;17.80;99.90;;;;;;5089961;27;20042;-70
2023/06/16 05:37:15;;;;;;;8.45;6.43;;;17.90;99.90;;;;;;5102886;27;20047;-71
2023/06/16 05:39:45;;;;;;;7.13;6.43;;;17.90;99.90;;;;;;5088385;27;20046;-68
2023/06/16 05:42:14;;;;;;;8.35;6.90;;;18.00;99.90;;;;;;5103864;27;20042;-69
2023/06/16 05:44:44;;;;;;;7.20;6.03;;;18.20;99.90;;;;;;5106538;27;20556;-70
2023/06/16 05:47:10;;;;;;;11.07;6.18;;;18.20;99.90;;;;;;5105413;27;20050;-68
2023/06/16 05:49:36;;;;;;;6.78;6.00;;;18.30;99.90;;;;;;5087861;27;20043;-69
2023/06/16 05:52:05;;;;;;;8.50;6.13;;;18.40;99.90;;;;;;5085187;27;20051;-68
2023/06/16 05:54:31;;;;;;;7.88;6.45;;;18.50;99.90;;;;;;5098596;27;20053;-70
2023/06/16 05:56:57;;;;;;;7.07;6.38;;;18.60;99.90;;;;;;5104081;27;20047;-69
2023/06/16 05:59:22;;;;;;;7.75;6.38;;;18.80;99.90;;;;;;5088758;27;20393;-69
2023/06/16 06:01:51;;;;;;;6.38;5.78;;;18.80;99.90;;;;;;5122612;27;20046;-68
2023/06/16 06:04:21;;;;;;;8.05;6.20;;;18.90;99.90;;;;;;5083749;27;20057;-68
2023/06/16 06:06:48;;;;;;;7.43;5.97;;;19.00;99.90;;;;;;5102543;27;20053;-68
2023/06/16 06:09:13;;;;;;;8.15;5.97;;;19.00;99.90;;;;;;5088005;27;20047;-68
2023/06/16 06:11:40;;;;;;;8.63;6.25;;;19.10;99.90;;;;;;5104785;27;20108;-70
2023/06/16 06:14:05;;;;;;;9.00;6.15;;;19.20;99.90;;;;;;5089792;27;20035;-68
2023/06/16 06:16:31;;;;;;;7.43;6.07;;;19.30;99.90;;;;;;5103896;27;20253;-69
2023/06/16 06:19:03;;;;;;;8.82;6.10;;;19.40;99.90;;;;;;5102803;27;20053;-70
2023/06/16 06:21:29;;;;;;;8.05;6.40;;;19.50;99.90;;;;;;5105398;27;20047;-73
2023/06/16 06:23:55;;;;;;;7.45;5.95;;;19.60;99.90;;;;;;5124959;27;20080;-69
2023/06/16 06:26:20;;;;;;;7.38;5.97;;;19.70;99.90;;;;;;5087084;27;20546;-68
2023/06/16 06:28:46;;;;;;;9.60;6.00;;;19.80;99.90;;;;;;5087017;27;20051;-69
2023/06/16 06:31:12;;;;;;;7.20;5.70;;;19.90;99.90;;;;;;5105086;27;20126;-68
2023/06/16 06:33:37;;;;;;;7.63;5.50;;;20.00;99.90;;;;;;5086731;27;20054;-71
2023/06/16 06:36:03;;;;;;;8.15;5.30;;;20.10;99.90;;;;;;5099726;27;20081;-68
2023/06/16 06:38:29;;;;;;;8.82;5.60;;;20.20;99.90;;;;;;5102280;27;22043;-68
2023/06/16 06:40:55;;;;;;;8.27;4.95;;;20.30;99.90;;;;;;5087890;27;20126;-69
2023/06/16 06:43:21;;;;;;;5.63;4.63;;;20.30;99.90;;;;;;5104186;27;20076;-68
2023/06/16 06:45:48;;;;;;;5.97;5.25;;;20.40;99.90;;;;;;5101187;27;20062;-66
2023/06/16 06:48:14;;;;;;;6.43;4.95;;;20.40;99.90;;;;;;5104443;27;20054;-68
2023/06/16 06:50:40;;;;;;;6.30;4.50;;;20.50;99.90;;;;;;5065218;27;20039;-67
2023/06/16 06:53:05;;;;;;;6.72;4.95;;;20.70;99.90;;;;;;5071326;27;20042;-69
2023/06/16 06:55:31;;;;;;;7.53;4.38;;;20.70;99.90;;;;;;5085467;27;20070;-69
2023/06/16 06:57:57;;;;;;;6.97;5.05;;;20.80;99.90;;;;;;5100609;27;20089;-68
2023/06/16 07:00:23;;;;;;;6.00;4.38;;;20.90;99.90;;;;;;5106055;27;20489;-68
2023/06/16 07:02:48;;;;;;;8.00;5.43;;;20.90;99.90;;;;;;5102153;27;20198;-68
2023/06/16 07:05:14;;;;;;;6.07;4.93;;;21.00;99.90;;;;;;5087092;27;20528;-67
2023/06/16 07:07:41;;;;;;;6.90;4.85;;;21.10;99.90;;;;;;5101338;27;20050;-70
2023/06/16 07:10:07;;;;;;;7.50;5.28;;;21.20;99.90;;;;;;5072690;27;20039;-69
2023/06/16 07:12:33;;;;;;;7.57;4.38;;;21.40;99.90;;;;;;5084133;27;20367;-67
2023/06/16 07:14:58;;;;;;;6.35;4.72;;;21.40;99.90;;;;;;5103082;27;20046;-68
2023/06/16 07:17:24;;;;;;;6.45;4.50;;;21.50;99.90;;;;;;5102715;27;20058;-68
2023/06/16 07:19:50;;;;;;;6.53;4.80;;;21.60;99.90;;;;;;5102367;27;21058;-69
2023/06/16 07:22:16;;;;;;;6.60;4.70;;;21.60;99.90;;;;;;5086604;27;20050;-67
2023/06/16 07:24:42;;;;;;;5.65;4.18;;;21.80;99.90;;;;;;5071522;27;20103;-65
2023/06/16 07:27:08;;;;;;;7.45;4.70;;;21.90;99.90;;;;;;5102639;27;20039;-66
2023/06/16 07:29:34;;;;;;;7.05;4.30;;;22.00;99.90;;;;;;5104549;27;21606;-65
2023/06/16 07:32:00;;;;;;;5.40;4.55;;;22.00;99.90;;;;;;5103456;27;20095;-68
2023/06/16 07:34:26;;;;;;;4.55;3.97;;;22.10;99.90;;;;;;5103954;27;20045;-67
2023/06/16 07:36:52;;;;;;;6.65;4.20;;;22.20;99.90;;;;;;5097252;27;20409;-68
2023/06/16 07:39:18;;;;;;;5.90;4.38;;;22.30;99.70;;;;;;5086304;27;20039;-69
2023/06/16 07:41:43;;;;;;;6.70;4.35;;;22.30;99.40;;;;;;5083444;27;20231;-71
2023/06/16 07:44:09;;;;;;;7.30;4.72;;;22.30;99.30;;;;;;5099578;27;20042;-67
2023/06/16 07:46:35;;;;;;;5.13;4.30;;;22.40;99.00;;;;;;5087621;27;20050;-69
2023/06/16 07:49:01;;;;;;;5.15;3.95;;;22.60;98.90;;;;;;5085374;27;20066;-69
2023/06/16 07:51:27;;;;;;;6.38;3.95;;;22.80;98.80;;;;;;5092585;27;20051;-66
2023/06/16 07:53:53;;;;;;;5.70;4.35;;;23.00;98.40;;;;;;5099509;27;20054;-72
2023/06/16 07:56:18;;;;;;;4.95;3.97;;;23.10;98.00;;;;;;5120940;27;20051;-66
2023/06/16 07:58:45;;;;;;;5.18;3.47;;;23.10;97.30;;;;;;5085739;27;20494;-66
2023/06/16 08:01:11;;;;;;;5.72;4.00;;;23.20;96.60;;;;;;5105201;27;20123;-66
2023/06/16 08:03:37;;;;;;;7.03;3.65;;;23.40;96.50;;;;;;5101079;27;20129;-66
2023/06/16 08:06:04;;;;;;;4.65;3.55;;;23.50;96.00;;;;;;5095572;27;20078;-65
2023/06/16 08:08:32;;;;;;;5.85;3.80;;;23.70;95.60;;;;;;5112649;27;20046;-67
2023/06/16 08:10:59;;;;;;;5.00;3.33;;;23.80;94.80;;;;;;5112069;27;20077;-69
2023/06/16 08:13:25;;;;;;;4.50;3.33;;;23.90;93.90;;;;;;5090646;27;20146;-69
2023/06/16 08:15:51;;;;;;;6.18;3.40;;;24.00;93.40;;;;;;5088517;27;20047;-69
2023/06/16 08:18:17;;;;;;;5.93;3.40;;;24.10;92.70;;;;;;5109352;27;20047;-68
2023/06/16 08:20:47;;;;;;;3.95;2.65;;;24.10;91.70;;;;;;5104719;27;20485;-68
2023/06/16 08:23:13;;;;;;;4.18;2.60;;;24.20;90.90;;;;;;5122859;27;20055;-78
2023/06/16 08:25:39;;;;;;;3.58;2.60;;;24.20;90.50;;;;;;5090814;27;20481;-72
2023/06/16 08:28:07;;;;;;;3.83;2.42;;;24.20;89.60;;;;;;5106625;27;20047;-70
2023/06/16 08:30:34;;;;;;;5.65;2.20;;;24.40;89.40;;;;;;5084944;27;20564;-69
2023/06/16 08:33:00;;;;;;;3.92;2.40;;;24.50;88.30;;;;;;5101590;27;20104;-72
2023/06/16 08:35:26;;;;;;;3.33;2.30;;;24.60;87.50;;;;;;5106680;27;20034;-74
2023/06/16 08:37:52;;;;;;;5.20;2.50;;;24.70;86.80;;;;;;5088587;27;20453;-74
2023/06/16 08:40:18;;;;;;;4.65;2.28;;;24.90;86.70;;;;;;5121021;27;20176;-70
2023/06/16 08:42:46;;;;;;;5.88;2.13;;;25.00;85.90;;;;;;5087632;27;20043;-73
2023/06/16 08:45:14;;;;;;;5.82;2.72;;;25.10;85.70;;;;;;5084079;27;20039;-70
2023/06/16 08:47:42;;;;;;;3.83;1.85;;;25.30;85.30;;;;;;5104150;27;20121;-69
2023/06/16 08:50:09;;;;;;;4.32;1.73;;;25.50;85.20;;;;;;5104450;27;20485;-75
2023/06/16 08:52:40;;;;;;;3.03;1.65;;;25.80;83.70;;;;;;5107949;27;20149;-73
2023/06/16 08:55:14;;;;;;;3.67;1.98;;;25.90;82.20;;;;;;5085595;27;20090;-72
2023/06/16 08:57:49;;;;;;;4.78;2.10;;;26.00;81.80;;;;;;5103137;27;20112;-72
2023/06/16 09:00:18;;;;;;;6.20;2.22;;;26.10;79.20;;;;;;5105478;27;20481;-73
2023/06/16 09:02:48;;;;;;;5.68;1.90;;;26.20;79.90;;;;;;5064680;27;20103;-72
2023/06/16 09:05:18;;;;;;;2.75;1.70;;;26.30;79.40;;;;;;5127701;27;20043;-70
2023/06/16 09:07:45;;;;;;;4.05;1.90;;;26.10;78.50;;;;;;5068776;27;20069;-71
2023/06/16 09:10:11;;;;;;;3.72;1.90;;;26.30;78.50;;;;;;5110583;27;20054;-73
2023/06/16 09:12:36;;;;;;;4.55;2.20;;;26.40;77.80;;;;;;5106400;27;20047;-68
2023/06/16 09:15:08;;;;;;;2.97;1.65;;;26.50;76.80;;;;;;5085516;27;20047;-69
2023/06/16 09:17:34;;;;;;;3.30;1.65;;;26.70;75.30;;;;;;5103116;27;20134;-68
2023/06/16 09:20:01;;;;;;;2.75;1.92;;;26.90;75.90;;;;;;5092577;27;20043;-69
2023/06/16 09:22:28;;;;;;;2.97;1.70;;;27.00;75.30;;;;;;5110111;27;20148;-69
2023/06/16 09:24:57;;;;;;;3.40;1.90;;;27.10;74.00;;;;;;5089540;27;20091;-71
2023/06/16 09:27:43;;;;;;;3.67;1.60;;;27.10;73.00;;;;;;5116805;27;20042;-70
2023/06/16 09:30:12;;;;;;;3.67;1.92;;;27.40;71.50;;;;;;5110162;27;20046;-69
2023/06/16 09:32:38;;;;;;;2.53;1.65;;;27.50;71.00;;;;;;5110806;27;20058;-69
2023/06/16 09:35:31;;;;;;;4.40;1.60;;;27.80;69.90;;;;;;5081847;27;20505;-68
2023/06/16 09:37:59;;;;;;;3.88;2.17;;;27.80;65.80;;;;;;5091969;27;20055;-70
2023/06/16 09:40:32;;;;;;;4.70;2.00;;;27.80;68.70;;;;;;5109606;27;20122;-66
2023/06/16 09:43:00;;;;;;;4.30;2.03;;;28.00;68.00;;;;;;5108667;27;20051;-68
2023/06/16 09:45:33;;;;;;;5.13;2.35;;;28.20;67.20;;;;;;5109105;27;20047;-70
2023/06/16 09:48:04;;;;;;;4.22;1.90;;;28.40;65.80;;;;;;5110617;27;20063;-71
2023/06/16 09:50:30;;;;;;;5.22;2.10;;;28.40;66.50;;;;;;5110695;27;20039;-69
2023/06/16 09:52:57;;;;;;;5.32;2.03;;;28.50;66.40;;;;;;5106195;27;20081;-68
2023/06/16 09:55:27;;;;;;;3.28;1.80;;;28.70;65.70;;;;;;5108858;27;20799;-68
2023/06/16 09:57:53;;;;;;;3.10;1.80;;;28.80;65.10;;;;;;5107239;27;20076;-70
2023/06/16 10:00:19;;;;;;;4.18;1.80;;;28.60;64.00;;;;;;5111772;27;20490;-69
2023/06/16 10:02:52;;;;;;;3.25;1.85;;;28.40;63.10;;;;;;5109205;27;20754;-69
2023/06/16 10:05:19;;;;;;;5.53;2.05;;;28.40;63.10;;;;;;5091801;27;20913;-70
2023/06/16 10:07:55;;;;;;;3.15;2.05;;;28.30;63.50;;;;;;5092057;27;20040;-71
2023/06/16 10:10:25;;;;;;;4.57;1.70;;;28.40;62.20;;;;;;5104323;27;20035;-69
2023/06/16 10:12:53;;;;;;;3.50;1.90;;;28.30;62.80;;;;;;5107299;27;20130;-67
2023/06/16 10:15:25;;;;;;;4.05;2.10;;;28.50;63.80;;;;;;5111509;27;20090;-68
2023/06/16 10:17:54;;;;;;;4.32;1.90;;;28.70;63.70;;;;;;5108811;27;20051;-68
2023/06/16 10:20:25;;;;;;;3.58;1.90;;;28.80;63.20;;;;;;5109731;27;20043;-68
2023/06/16 10:22:51;;;;;;;4.20;1.75;;;28.90;63.00;;;;;;5125015;27;20047;-68
2023/06/16 10:25:18;;;;;;;3.80;1.60;;;29.00;63.00;;;;;;5086366;27;20390;-71
2023/06/16 10:27:45;;;;;;;2.95;1.70;;;29.00;62.30;;;;;;5100184;27;20055;-68
2023/06/16 10:30:16;;;;;;;4.03;1.95;;;28.90;61.80;;;;;;5105617;27;20043;-68
2023/06/16 10:32:49;;;;;;;4.57;1.83;;;28.90;61.70;;;;;;5093002;27;20053;-73
2023/06/16 10:35:22;;;;;;;3.92;2.00;;;28.90;61.60;;;;;;5088088;27;20163;-69
2023/06/16 10:37:53;;;;;;;3.42;1.65;;;28.90;61.90;;;;;;5064836;27;20489;-68
2023/06/16 10:40:21;;;;;;;3.65;1.80;;;28.90;60.90;;;;;;5093235;27;20058;-71
2023/06/16 10:42:48;;;;;;;3.95;2.00;;;29.00;61.50;;;;;;5108008;27;20047;-70
2023/06/16 10:45:24;;;;;;;4.50;1.70;;;29.10;61.60;;;;;;5092974;27;20544;-69
2023/06/16 10:48:05;;;;;;;3.00;1.90;;;29.30;61.00;;;;;;5126290;27;20110;-69
2023/06/16 10:50:42;;;;;;;2.53;1.73;;;29.30;61.20;;;;;;5079558;27;20036;-68
2023/06/16 10:53:11;;;;;;;4.95;1.80;;;29.30;60.90;;;;;;5108934;27;20050;-70
2023/06/16 10:55:41;;;;;;;5.63;1.80;;;29.60;62.40;;;;;;5080607;27;20047;-69
2023/06/16 10:58:16;;;;;;;4.18;1.90;;;29.80;62.30;;;;;;5113001;27;20451;-67
2023/06/16 11:00:57;;;;;;;3.65;2.25;;;30.10;61.70;;;;;;5104528;27;20051;-69
2023/06/16 11:03:45;;;;;;;4.18;2.20;;;30.00;60.70;;;;;;5106698;27;21649;-68
2023/06/16 11:06:13;;;;;;;3.92;2.05;;;29.70;61.40;;;;;;5104764;27;20078;-70
2023/06/16 11:08:55;;;;;;;5.18;2.00;;;29.90;62.10;;;;;;5098934;27;20055;-71
2023/06/16 11:11:32;;;;;;;2.17;1.67;;;29.90;60.60;;;;;;5104972;27;20063;-69
2023/06/16 11:14:00;;;;;;;3.97;2.10;;;29.80;61.00;;;;;;5090471;27;20446;-69
2023/06/16 11:16:26;;;;;;;2.58;1.83;;;29.30;61.80;;;;;;5106863;27;20841;-69
2023/06/16 11:18:54;;;;;;;4.07;2.22;;;29.20;61.90;;;;;;5088707;27;20050;-68
2023/06/16 11:21:23;;;;;;;5.75;2.30;;;29.20;62.60;;;;;;5093603;27;20398;-68
2023/06/16 11:23:49;;;;;;;5.07;2.10;;;29.30;62.40;;;;;;5105553;27;20043;-71
2023/06/16 11:26:17;;;;;;;3.60;1.90;;;29.20;61.60;;;;;;5091020;27;20128;-70
2023/06/16 11:28:43;;;;;;;3.55;1.90;;;29.00;61.30;;;;;;5104486;27;20106;-68
2023/06/16 11:31:11;;;;;;;5.28;1.98;;;29.10;61.00;;;;;;5108279;27;20035;-68
2023/06/16 11:33:38;;;;;;;2.83;1.50;;;29.00;60.00;;;;;;5107204;27;20129;-68
2023/06/16 11:36:23;;;;;;;4.35;1.80;;;29.10;59.60;;;;;;5089473;27;20977;-68
2023/06/16 11:38:51;;;;;;;3.15;1.75;;;29.50;57.40;;;;;;5112889;27;20043;-68
2023/06/16 11:41:19;;;;;;;2.90;1.70;;;29.70;58.60;;;;;;5114889;27;20477;-68
2023/06/16 11:43:46;;;;;;;3.60;1.60;;;29.60;58.20;;;;;;5101055;27;20527;-69
2023/06/16 11:46:12;;;;;;;3.50;1.50;;;29.40;58.10;;;;;;5098097;27;20058;-67
2023/06/16 11:48:39;;;;;;;3.13;1.65;;;29.50;58.20;;;;;;5096048;27;20043;-69
2023/06/16 11:51:05;;;;;;;2.80;1.50;;;29.70;58.20;;;;;;5114121;27;20577;-69
2023/06/16 11:53:35;;;;;;;4.82;1.50;;;29.70;58.20;;;;;;5110456;27;20114;-69
2023/06/16 11:56:06;;;;;;;2.38;1.63;;;29.60;58.30;;;;;;5132073;27;20050;-69
2023/06/16 11:58:32;;;;;;;3.08;1.40;;;29.70;57.90;;;;;;5111687;27;20054;-69
2023/06/16 12:01:01;;;;;;;2.40;1.25;;;30.00;57.70;;;;;;5128951;27;20051;-69
2023/06/16 12:03:35;;;;;;;2.92;1.38;;;29.70;56.80;;;;;;5105272;27;20049;-68
2023/06/16 12:06:06;;;;;;;2.45;1.40;;;29.80;56.80;;;;;;5115338;27;20552;-68
2023/06/16 12:08:45;;;;;;;2.60;1.35;;;29.80;57.20;;;;;;5112241;27;20091;-68
2023/06/16 12:11:21;;;;;;;3.10;1.60;;;29.80;56.40;;;;;;5114214;27;20572;-68
2023/06/16 12:13:49;;;;;;;5.57;1.60;;;29.70;55.00;;;;;;5107891;27;20054;-69
2023/06/16 12:16:16;;;;;;;3.55;1.67;;;29.50;56.20;;;;;;5114316;27;20054;-71
2023/06/16 12:18:42;;;;;;;3.28;1.50;;;29.20;56.50;;;;;;5093946;27;20062;-69
2023/06/16 12:21:21;;;;;;;2.10;1.35;;;29.30;56.90;;;;;;5111080;27;20134;-68
2023/06/16 12:23:58;;;;;;;2.95;1.58;;;29.60;57.10;;;;;;5085290;27;20047;-68
2023/06/16 12:26:43;;;;;;;3.28;1.40;;;29.60;56.20;;;;;;5129521;27;20055;-68
2023/06/16 12:29:16;;;;;;;3.88;1.35;;;29.80;56.50;;;;;;5104137;27;20039;-68
2023/06/16 12:31:57;;;;;;;2.75;1.50;;;29.80;56.70;;;;;;5086760;27;20043;-68
2023/06/16 12:34:25;;;;;;;2.63;1.40;;;29.80;56.70;;;;;;5114378;27;20049;-69
2023/06/16 12:36:52;;;;;;;2.10;1.40;;;29.70;57.00;;;;;;5098958;27;20052;-69
2023/06/16 12:39:20;;;;;;;2.50;1.60;;;29.90;56.60;;;;;;5110602;27;20055;-68
2023/06/16 12:42:25;;;;;;;2.72;1.48;;;30.00;55.90;;;;;;5110797;27;20497;-70
2023/06/16 12:44:52;;;;;;;3.85;1.30;;;29.90;55.60;;;;;;5114274;27;20103;-70
2023/06/16 12:47:23;;;;;;;2.42;1.30;;;29.70;55.50;;;;;;5108416;27;20047;-70
2023/06/16 12:49:54;;;;;;;2.90;1.40;;;29.70;55.00;;;;;;5107495;27;20055;-70